createdAt,value
2017-10-06T00:02:02.936Z,10.58
2017-10-06T00:04:34.310Z,10.57
2017-10-06T00:07:05.469Z,10.57
2017-10-06T00:09:37.631Z,10.58
2017-10-06T00:12:08.722Z,10.60
2017-10-06T00:14:40.087Z,10.61
2017-10-06T00:17:11.197Z,10.61
2017-10-06T00:19:42.287Z,10.59
2017-10-06T00:22:13.789Z,10.61
2017-10-06T00:24:44.926Z,10.59
2017-10-06T00:27:16.057Z,10.59
2017-10-06T00:29:47.466Z,10.59
2017-10-06T00:32:18.521Z,10.58
2017-10-06T00:34:49.591Z,10.59
2017-10-06T00:37:25.935Z,10.60
2017-10-06T00:39:57.045Z,10.59
2017-10-06T00:42:29.986Z,10.58
2017-10-06T00:45:01.744Z,10.56
2017-10-06T00:47:35.932Z,10.54
2017-10-06T00:50:13.068Z,10.53
2017-10-06T00:52:44.140Z,10.50
2017-10-06T00:55:17.164Z,10.48
2017-10-06T00:57:50.666Z,10.45
2017-10-06T01:00:23.761Z,10.42
2017-10-06T01:02:56.054Z,10.39
2017-10-06T01:05:27.732Z,10.35
2017-10-06T01:08:00.661Z,10.32
2017-10-06T01:10:32.121Z,10.29
2017-10-06T01:13:07.640Z,10.28
2017-10-06T01:15:39.001Z,10.27
2017-10-06T01:18:11.704Z,10.26
2017-10-06T01:20:42.807Z,10.25
2017-10-06T01:23:14.420Z,10.21
2017-10-06T01:25:45.905Z,10.17
2017-10-06T01:28:17.341Z,10.14
2017-10-06T01:30:48.519Z,10.10
2017-10-06T01:33:20.302Z,10.08
2017-10-06T01:35:51.809Z,10.07
2017-10-06T01:38:25.660Z,10.01
2017-10-06T01:40:57.017Z,9.99
2017-10-06T01:43:28.580Z,9.98
2017-10-06T01:45:59.640Z,9.95
2017-10-06T01:48:31.294Z,9.92
2017-10-06T01:51:04.160Z,9.93
2017-10-06T01:53:35.232Z,9.91
2017-10-06T01:56:07.812Z,9.90
2017-10-06T01:58:38.895Z,9.92
2017-10-06T02:01:10.517Z,9.94
2017-10-06T02:03:41.893Z,9.92
2017-10-06T02:06:12.955Z,9.91
2017-10-06T02:08:44.334Z,9.89
2017-10-06T02:11:15.548Z,9.84
2017-10-06T02:13:46.612Z,9.81
2017-10-06T02:16:18.193Z,9.78
2017-10-06T02:18:49.252Z,9.76
2017-10-06T02:21:20.415Z,9.76
2017-10-06T02:23:51.514Z,9.76
2017-10-06T02:26:24.568Z,9.76
2017-10-06T02:28:55.837Z,9.78
2017-10-06T02:31:28.680Z,9.79
2017-10-06T02:34:00.012Z,9.81
2017-10-06T02:36:31.478Z,9.81
2017-10-06T02:39:04.087Z,9.84
2017-10-06T02:41:36.069Z,9.85
2017-10-06T02:44:12.193Z,9.81
2017-10-06T02:46:43.533Z,9.78
2017-10-06T02:49:14.599Z,9.78
2017-10-06T02:51:45.677Z,9.79
2017-10-06T02:54:17.060Z,9.80
2017-10-06T02:56:48.168Z,9.80
2017-10-06T02:59:19.336Z,9.87
2017-10-06T03:01:50.763Z,9.98
2017-10-06T03:04:22.770Z,10.11
2017-10-06T03:06:53.859Z,10.19
2017-10-06T03:09:27.094Z,10.24
2017-10-06T03:11:58.249Z,10.30
2017-10-06T03:14:29.633Z,10.35
2017-10-06T03:17:00.930Z,10.41
2017-10-06T03:19:32.012Z,10.46
2017-10-06T03:22:04.691Z,10.51
2017-10-06T03:24:35.752Z,10.57
2017-10-06T03:27:06.875Z,10.59
2017-10-06T03:29:38.211Z,10.59
2017-10-06T03:32:09.272Z,10.55
2017-10-06T03:34:40.350Z,10.51
2017-10-06T03:37:11.934Z,10.45
2017-10-06T03:39:42.970Z,10.39
2017-10-06T03:42:15.483Z,10.34
2017-10-06T03:44:46.799Z,10.33
2017-10-06T03:47:17.840Z,10.32
2017-10-06T03:49:49.185Z,10.35
2017-10-06T03:52:20.253Z,10.38
2017-10-06T03:54:51.604Z,10.38
2017-10-06T03:57:23.073Z,10.38
2017-10-06T03:59:54.297Z,10.34
2017-10-06T04:02:27.068Z,10.29
2017-10-06T04:04:58.143Z,10.27
2017-10-06T04:07:29.213Z,10.29
2017-10-06T04:10:00.630Z,10.31
2017-10-06T04:12:31.799Z,10.35
2017-10-06T04:15:04.200Z,10.38
2017-10-06T04:17:36.453Z,10.40
2017-10-06T04:20:07.781Z,10.43
2017-10-06T04:22:39.124Z,10.46
2017-10-06T04:25:10.153Z,10.49
2017-10-06T04:27:41.192Z,10.51
2017-10-06T04:30:12.555Z,10.54
2017-10-06T04:32:43.786Z,10.55
2017-10-06T04:35:17.313Z,10.58
2017-10-06T04:37:48.365Z,10.61
2017-10-06T04:40:19.446Z,10.62
2017-10-06T04:42:50.492Z,10.64
2017-10-06T04:45:21.994Z,10.66
2017-10-06T04:47:53.351Z,10.70
2017-10-06T04:50:25.319Z,10.67
2017-10-06T04:52:56.605Z,10.63
2017-10-06T04:55:28.228Z,10.57
2017-10-06T04:57:59.292Z,10.51
2017-10-06T05:00:30.672Z,10.42
2017-10-06T05:03:02.389Z,10.33
2017-10-06T05:05:33.469Z,10.27
2017-10-06T05:08:05.925Z,10.22
2017-10-06T05:10:37.000Z,10.19
2017-10-06T05:13:08.261Z,10.16
2017-10-06T05:15:39.595Z,10.12
2017-10-06T05:18:10.645Z,10.09
2017-10-06T05:20:41.773Z,10.07
2017-10-06T05:23:13.357Z,10.04
2017-10-06T05:25:44.441Z,10.00
2017-10-06T05:28:15.482Z,9.95
2017-10-06T05:30:47.088Z,9.94
2017-10-06T05:33:18.166Z,9.93
2017-10-06T05:35:49.472Z,9.93
2017-10-06T05:38:21.118Z,9.94
2017-10-06T05:40:52.275Z,9.93
2017-10-06T05:43:24.145Z,9.93
2017-10-06T05:45:55.297Z,9.93
2017-10-06T05:48:28.500Z,9.96
2017-10-06T05:50:59.528Z,9.97
2017-10-06T05:53:34.098Z,10.01
2017-10-06T05:56:09.253Z,10.01
2017-10-06T05:58:40.279Z,10.02
2017-10-06T06:01:11.635Z,10.05
2017-10-06T06:03:42.771Z,10.09
2017-10-06T06:06:14.253Z,10.13
2017-10-06T06:08:45.745Z,10.18
2017-10-06T06:11:17.071Z,10.24
2017-10-06T06:13:48.225Z,10.31
2017-10-06T06:16:19.400Z,10.39
2017-10-06T06:18:52.009Z,10.45
2017-10-06T06:24:29.321Z,10.61
2017-10-06T06:27:04.035Z,10.65
2017-10-06T06:29:35.942Z,10.67
2017-10-06T06:32:07.405Z,10.69
2017-10-06T06:34:38.720Z,10.72
2017-10-06T06:37:11.590Z,10.76
2017-10-06T06:39:59.030Z,10.83
2017-10-06T06:42:32.834Z,10.94
2017-10-06T06:45:06.166Z,11.05
2017-10-06T06:47:41.076Z,11.15
2017-10-06T06:50:13.295Z,11.23
2017-10-06T06:52:46.937Z,11.29
2017-10-06T06:58:24.238Z,11.41
2017-10-06T07:00:58.780Z,11.43
2017-10-06T07:54:48.677Z,16.14
2017-10-06T08:18:15.059Z,18.42
2017-10-06T08:20:46.309Z,17.84
2017-10-06T08:23:18.522Z,16.77
2017-10-06T08:25:50.772Z,16.18
2017-10-06T08:28:22.193Z,15.77
2017-10-06T08:30:53.996Z,15.39
2017-10-06T08:33:30.509Z,14.96
2017-10-06T08:36:18.826Z,14.73
2017-10-06T08:41:51.071Z,14.40
2017-10-06T08:44:23.389Z,14.19
2017-10-06T08:46:56.865Z,14.10
2017-10-06T08:49:29.392Z,14.06
2017-10-06T08:52:02.253Z,14.05
2017-10-06T08:54:34.873Z,14.02
2017-10-06T08:57:08.776Z,13.96
2017-10-06T08:59:42.466Z,13.90
2017-10-06T09:02:16.385Z,13.86
2017-10-06T09:04:49.611Z,13.77
2017-10-06T09:07:24.124Z,13.71
2017-10-06T09:09:56.197Z,13.68
2017-10-06T09:12:29.175Z,13.66
2017-10-06T09:15:02.940Z,13.73
2017-10-06T09:17:34.716Z,13.85
2017-10-06T09:20:09.506Z,13.93
2017-10-06T09:22:43.673Z,13.98
2017-10-06T09:25:14.806Z,13.96
2017-10-06T09:27:47.160Z,13.88
2017-10-06T09:30:19.296Z,13.78
2017-10-06T09:32:50.573Z,13.74
2017-10-06T09:35:21.952Z,13.73
2017-10-06T09:37:53.617Z,13.80
2017-10-06T09:40:24.764Z,13.93
2017-10-06T09:42:55.923Z,14.00
2017-10-06T09:45:27.464Z,13.98
2017-10-06T09:47:58.544Z,13.98
2017-10-06T09:50:30.067Z,13.90
2017-10-06T09:53:01.962Z,14.00
2017-10-06T09:55:33.144Z,13.92
2017-10-06T09:58:06.136Z,13.79
2017-10-06T10:00:37.558Z,13.66
2017-10-06T10:03:08.690Z,13.61
2017-10-06T10:05:39.965Z,13.61
2017-10-06T10:08:12.476Z,13.63
2017-10-06T10:10:46.493Z,13.73
2017-10-06T10:13:17.811Z,13.94
2017-10-06T10:15:49.263Z,14.35
2017-10-06T10:18:21.820Z,14.94
2017-10-06T10:20:53.337Z,16.27
2017-10-06T10:23:24.741Z,18.09
2017-10-06T10:25:55.837Z,21.15
2017-10-06T10:28:27.026Z,22.06
2017-10-06T10:30:58.440Z,20.61
2017-10-06T10:33:29.716Z,19.34
2017-10-06T10:36:00.899Z,18.12
2017-10-06T10:38:35.324Z,17.32
2017-10-06T10:41:22.929Z,16.73
2017-10-06T10:44:12.973Z,16.14
2017-10-06T10:49:30.172Z,15.54
2017-10-06T10:52:05.661Z,15.14
2017-10-06T10:54:37.493Z,14.87
2017-10-06T10:57:08.772Z,14.84
2017-10-06T10:59:40.737Z,14.78
2017-10-06T11:02:15.643Z,14.86
2017-10-06T11:04:47.996Z,14.89
2017-10-06T11:07:19.521Z,14.96
2017-10-06T11:09:55.594Z,15.05
2017-10-06T11:12:30.365Z,14.98
2017-10-06T11:15:02.414Z,14.77
2017-10-06T11:17:34.929Z,14.67
2017-10-06T11:20:12.257Z,14.75
2017-10-06T11:22:47.298Z,14.84
2017-10-06T11:25:24.916Z,14.80
2017-10-06T11:27:57.900Z,14.69
2017-10-06T11:30:30.146Z,14.74
2017-10-06T11:33:07.889Z,14.91
2017-10-06T11:35:41.719Z,15.24
2017-10-06T11:44:18.185Z,21.20
2017-10-06T11:46:50.426Z,24.30
2017-10-06T11:52:34.553Z,34.88
2017-10-06T11:58:11.660Z,34.35
2017-10-06T12:01:14.179Z,33.17
2017-10-06T12:04:02.748Z,36.00
2017-10-06T12:09:36.865Z,31.70
2017-10-06T12:12:10.861Z,27.97
2017-10-06T12:14:42.984Z,25.16
2017-10-06T12:17:15.842Z,23.68
2017-10-06T12:19:47.633Z,22.26
2017-10-06T12:22:23.683Z,22.43
2017-10-06T12:24:55.849Z,23.72
2017-10-06T12:27:32.322Z,22.53
2017-10-06T12:30:15.777Z,21.77
2017-10-06T12:32:47.138Z,21.19
2017-10-06T12:35:40.553Z,20.51
2017-10-06T12:38:14.758Z,19.01
2017-10-06T12:40:49.899Z,18.30
2017-10-06T12:43:26.493Z,17.87
2017-10-06T12:45:58.756Z,17.47
2017-10-06T12:48:41.660Z,17.14
2017-10-06T12:51:16.266Z,16.89
2017-10-06T12:53:52.514Z,16.57
2017-10-06T12:56:31.646Z,16.33
2017-10-06T13:02:24.946Z,15.99
2017-10-06T13:08:03.710Z,15.83
2017-10-06T13:10:35.483Z,15.66
2017-10-06T13:13:07.309Z,15.56
2017-10-06T13:15:38.641Z,15.56
2017-10-06T13:18:10.048Z,15.41
2017-10-06T13:20:41.786Z,15.30
2017-10-06T13:23:13.532Z,15.16
2017-10-06T13:25:47.293Z,15.03
2017-10-06T13:28:56.056Z,14.85
2017-10-06T13:31:29.975Z,14.77
2017-10-06T13:34:02.934Z,14.73
2017-10-06T13:36:34.245Z,14.71
2017-10-06T13:39:07.121Z,14.73
2017-10-06T13:41:40.024Z,14.68
2017-10-06T13:44:12.778Z,14.63
2017-10-06T13:46:45.659Z,14.73
2017-10-06T13:49:21.564Z,14.84
2017-10-06T13:51:52.710Z,14.88
2017-10-06T13:54:26.573Z,14.95
2017-10-06T13:56:59.640Z,15.01
2017-10-06T13:59:31.397Z,15.03
2017-10-06T14:02:05.611Z,15.26
2017-10-06T14:04:37.735Z,15.73
2017-10-06T14:07:10.033Z,16.43
2017-10-06T14:12:52.407Z,17.81
2017-10-06T14:15:51.693Z,18.45
2017-10-06T14:18:40.041Z,18.69
2017-10-06T14:21:18.541Z,20.36
2017-10-06T14:30:00.346Z,30.71
2017-10-06T14:38:19.327Z,32.57
2017-10-06T14:40:51.201Z,31.38
2017-10-06T14:46:42.912Z,26.42
2017-10-06T14:49:18.128Z,24.41
2017-10-06T14:51:51.770Z,23.02
2017-10-06T14:54:25.697Z,22.20
2017-10-06T14:56:58.859Z,22.05
2017-10-06T14:59:48.068Z,22.80
2017-10-06T15:02:34.707Z,24.41
2017-10-06T15:05:11.795Z,23.78
2017-10-06T15:07:44.456Z,22.83
2017-10-06T15:13:19.905Z,21.24
2017-10-06T15:15:59.619Z,19.61
2017-10-06T15:18:35.062Z,19.09
2017-10-06T15:21:12.424Z,18.67
2017-10-06T15:23:47.997Z,18.26
2017-10-06T15:26:37.553Z,18.03
2017-10-06T15:34:58.951Z,17.45
2017-10-06T15:37:31.676Z,18.22
2017-10-06T15:40:12.400Z,19.72
2017-10-06T15:42:50.334Z,19.41
2017-10-06T15:45:22.245Z,18.91
2017-10-06T15:47:54.871Z,19.69
2017-10-06T15:50:28.587Z,20.79
2017-10-06T15:56:08.214Z,18.78
2017-10-06T15:58:40.961Z,17.88
2017-10-06T16:01:19.168Z,17.36
2017-10-06T16:03:50.396Z,16.83
2017-10-06T16:06:24.213Z,16.54
2017-10-06T16:08:55.472Z,16.40
2017-10-06T16:11:28.960Z,16.45
2017-10-06T16:14:03.193Z,16.45
2017-10-06T16:16:38.238Z,16.33
2017-10-06T16:19:09.626Z,16.27
2017-10-06T16:21:41.344Z,16.20
2017-10-06T16:24:13.939Z,16.15
2017-10-06T16:26:46.883Z,16.05
2017-10-06T16:29:28.398Z,15.97
2017-10-06T16:32:11.627Z,15.80
2017-10-06T16:34:43.547Z,15.55
2017-10-06T16:37:14.805Z,15.39
2017-10-06T16:39:46.715Z,15.29
2017-10-06T16:42:21.044Z,15.19
2017-10-06T16:44:52.216Z,15.15
2017-10-06T16:47:26.299Z,15.12
2017-10-06T16:50:00.473Z,15.04
2017-10-06T16:52:34.270Z,14.94
2017-10-06T16:55:05.867Z,14.82
2017-10-06T16:57:39.305Z,14.68
2017-10-06T17:00:13.617Z,14.47
2017-10-06T17:02:45.774Z,14.27
2017-10-06T17:05:21.570Z,14.11
2017-10-06T17:07:52.766Z,14.00
2017-10-06T17:10:24.646Z,13.87
2017-10-06T17:12:55.989Z,13.79
2017-10-06T17:15:27.106Z,13.74
2017-10-06T17:17:59.137Z,13.70
2017-10-06T17:20:31.626Z,13.67
2017-10-06T17:26:12.554Z,13.56
2017-10-06T17:31:49.570Z,13.68
2017-10-06T17:34:22.451Z,13.77
2017-10-06T17:36:53.844Z,13.81
2017-10-06T17:39:26.706Z,13.80
2017-10-06T17:41:58.255Z,13.80
2017-10-06T17:44:29.609Z,13.78
2017-10-06T17:47:00.892Z,13.76
2017-10-06T17:49:35.724Z,13.77
2017-10-06T17:52:19.483Z,13.78
2017-10-06T17:54:50.937Z,13.77
2017-10-06T17:57:23.946Z,13.80
2017-10-06T17:59:55.058Z,13.82
2017-10-06T18:02:28.390Z,13.78
2017-10-06T18:04:59.741Z,13.72
2017-10-06T18:07:31.187Z,13.68
2017-10-06T18:10:05.824Z,13.66
2017-10-06T18:12:52.188Z,13.68
2017-10-06T18:18:05.821Z,13.66
2017-10-06T18:20:36.871Z,13.64
2017-10-06T18:23:11.843Z,13.66
2017-10-06T18:28:48.207Z,13.66
2017-10-06T18:31:19.300Z,13.70
2017-10-06T18:33:50.602Z,13.74
2017-10-06T18:36:26.254Z,13.79
2017-10-06T18:38:57.450Z,13.82
2017-10-06T18:41:28.791Z,13.84
2017-10-06T18:44:00.078Z,13.86
2017-10-06T18:46:31.896Z,13.86
2017-10-06T18:49:14.084Z,13.86
2017-10-06T18:51:47.261Z,13.86
2017-10-06T18:54:20.154Z,13.84
2017-10-06T18:56:51.173Z,13.82
2017-10-06T18:59:22.341Z,13.81
2017-10-06T19:01:53.367Z,13.80
2017-10-06T19:04:24.431Z,13.76
2017-10-06T19:06:56.149Z,13.73
2017-10-06T19:09:27.336Z,13.70
2017-10-06T19:12:00.637Z,13.70
2017-10-06T19:14:31.819Z,13.67
2017-10-06T19:17:05.281Z,13.64
2017-10-06T19:19:41.873Z,13.62
2017-10-06T19:22:13.903Z,13.63
2017-10-06T19:24:47.765Z,13.62
2017-10-06T19:27:20.161Z,13.54
2017-10-06T19:29:51.763Z,13.49
2017-10-06T19:32:24.426Z,13.41
2017-10-06T19:34:55.741Z,13.34
2017-10-06T19:37:27.900Z,13.27
2017-10-06T19:39:59.220Z,13.23
2017-10-06T19:42:30.516Z,13.22
2017-10-06T19:45:02.632Z,13.22
2017-10-06T19:47:35.829Z,13.22
2017-10-06T19:50:07.701Z,13.23
2017-10-06T19:52:39.597Z,13.24
2017-10-06T19:55:13.174Z,13.24
2017-10-06T19:57:44.847Z,13.24
2017-10-06T20:00:16.559Z,13.25
2017-10-06T20:02:48.446Z,13.23
2017-10-06T20:05:31.357Z,13.16
2017-10-06T20:08:07.533Z,13.03
2017-10-06T20:10:41.108Z,12.86
2017-10-06T20:13:12.889Z,12.72
2017-10-06T20:15:44.611Z,12.57
2017-10-06T20:18:16.147Z,12.47
2017-10-06T20:20:47.727Z,12.38
2017-10-06T20:23:19.530Z,12.29
2017-10-06T20:25:51.082Z,12.21
2017-10-06T20:28:22.606Z,12.17
2017-10-06T20:30:54.409Z,12.12
2017-10-06T20:33:26.434Z,12.10
2017-10-06T20:35:58.105Z,12.08
2017-10-06T20:38:33.964Z,12.08
2017-10-06T20:41:06.140Z,12.08
2017-10-06T20:43:39.465Z,12.04
2017-10-06T20:46:11.279Z,12.01
2017-10-06T20:48:42.704Z,11.97
2017-10-06T20:51:14.690Z,11.95
2017-10-06T20:53:45.862Z,11.94
2017-10-06T20:56:17.016Z,11.94
2017-10-06T20:58:48.614Z,11.91
2017-10-06T21:01:19.995Z,11.88
2017-10-06T21:03:51.145Z,11.87
2017-10-06T21:06:23.390Z,11.86
2017-10-06T21:08:54.683Z,11.84
2017-10-06T21:11:27.497Z,11.80
2017-10-06T21:13:58.618Z,11.76
2017-10-06T21:16:30.099Z,11.74
2017-10-06T21:19:01.865Z,11.70
2017-10-06T21:21:33.074Z,11.66
2017-10-06T21:24:05.409Z,11.68
2017-10-06T21:26:36.502Z,11.66
2017-10-06T21:29:08.064Z,11.68
2017-10-06T21:31:39.321Z,11.69
2017-10-06T21:34:10.668Z,11.63
2017-10-06T21:36:42.167Z,11.60
2017-10-06T21:39:13.237Z,11.58
2017-10-06T21:41:44.370Z,11.58
2017-10-06T21:44:15.809Z,11.55
2017-10-06T21:46:46.992Z,11.54
2017-10-06T21:49:18.391Z,11.48
2017-10-06T21:51:49.519Z,11.44
2017-10-06T21:54:20.929Z,11.41
2017-10-06T21:56:52.485Z,11.40
2017-10-06T21:59:24.663Z,11.38
2017-10-06T22:01:55.777Z,11.37
2017-10-06T22:04:27.710Z,11.40
2017-10-06T22:06:58.816Z,11.41
2017-10-06T22:09:30.312Z,11.41
2017-10-06T22:12:01.597Z,11.39
2017-10-06T22:14:32.768Z,11.41
2017-10-06T22:17:04.175Z,11.41
2017-10-06T22:19:35.327Z,11.42
2017-10-06T22:22:06.775Z,11.40
2017-10-06T22:24:38.193Z,11.37
2017-10-06T22:27:09.340Z,11.36
2017-10-06T22:29:40.758Z,11.33
2017-10-06T22:32:11.886Z,11.34
2017-10-06T22:34:43.351Z,11.36
2017-10-06T22:37:14.506Z,11.34
2017-10-06T22:39:45.811Z,11.38
2017-10-06T22:42:17.416Z,11.40
2017-10-06T22:44:49.232Z,11.41
2017-10-06T22:47:20.653Z,11.45
2017-10-06T22:49:52.086Z,11.44
2017-10-06T22:52:24.735Z,11.43
2017-10-06T22:54:56.554Z,11.36
2017-10-06T22:57:28.849Z,11.27
2017-10-06T23:00:00.024Z,11.22
2017-10-06T23:02:31.518Z,11.16
2017-10-06T23:05:02.843Z,11.12
2017-10-06T23:07:34.158Z,11.09
2017-10-06T23:10:06.679Z,11.04
2017-10-06T23:12:37.767Z,11.01
2017-10-06T23:15:08.842Z,10.97
2017-10-06T23:17:40.385Z,10.95
2017-10-06T23:20:11.463Z,10.92
2017-10-06T23:22:42.566Z,10.90
2017-10-06T23:25:14.128Z,10.85
2017-10-06T23:27:45.264Z,10.84
2017-10-06T23:30:16.372Z,10.82
2017-10-06T23:32:47.539Z,10.81
2017-10-06T23:35:19.088Z,10.82
2017-10-06T23:40:52.077Z,10.80
2017-10-06T23:43:23.929Z,10.84
2017-10-06T23:45:55.172Z,10.91
2017-10-06T23:48:27.566Z,10.92
2017-10-06T23:50:58.650Z,10.95
2017-10-06T23:53:30.427Z,10.98
2017-10-06T23:56:01.694Z,11.07
2017-10-06T23:58:33.068Z,11.13
